sensor_id;sensor_type;location;lat;lon;timestamp;P1;durP1;ratioP1;P2;durP2;ratioP2
67516;SDS011;68821;59.134;37.894;2024-03-02T00:00:04;4.65;;;2.22;;
67516;SDS011;68821;59.134;37.894;2024-03-02T00:02:40;7.72;;;2.33;;
67516;SDS011;68821;59.134;37.894;2024-03-02T00:05:07;6.15;;;2.25;;
67516;SDS011;68821;59.134;37.894;2024-03-02T00:07:33;5.13;;;1.90;;
67516;SDS011;68821;59.134;37.894;2024-03-02T00:09:59;5.78;;;2.60;;
67516;SDS011;68821;59.134;37.894;2024-03-02T00:12:26;5.60;;;2.13;;
67516;SDS011;68821;59.134;37.894;2024-03-02T00:14:52;7.82;;;2.05;;
67516;SDS011;68821;59.134;37.894;2024-03-02T00:17:21;6.82;;;2.50;;
67516;SDS011;68821;59.134;37.894;2024-03-02T00:19:51;6.05;;;2.70;;
67516;SDS011;68821;59.134;37.894;2024-03-02T00:22:18;4.65;;;2.50;;
67516;SDS011;68821;59.134;37.894;2024-03-02T00:24:44;6.03;;;2.15;;
67516;SDS011;68821;59.134;37.894;2024-03-02T00:27:10;5.10;;;2.10;;
67516;SDS011;68821;59.134;37.894;2024-03-02T00:29:40;5.53;;;2.47;;
67516;SDS011;68821;59.134;37.894;2024-03-02T00:32:13;5.43;;;1.75;;
67516;SDS011;68821;59.134;37.894;2024-03-02T00:34:41;4.70;;;2.00;;
67516;SDS011;68821;59.134;37.894;2024-03-02T00:37:07;6.50;;;2.20;;
67516;SDS011;68821;59.134;37.894;2024-03-02T00:39:34;4.40;;;2.00;;
67516;SDS011;68821;59.134;37.894;2024-03-02T00:42:00;7.05;;;2.40;;
67516;SDS011;68821;59.134;37.894;2024-03-02T00:44:26;8.07;;;2.50;;
67516;SDS011;68821;59.134;37.894;2024-03-02T00:46:55;5.97;;;2.33;;
67516;SDS011;68821;59.134;37.894;2024-03-02T00:49:22;4.80;;;2.53;;
67516;SDS011;68821;59.134;37.894;2024-03-02T00:51:49;4.80;;;2.10;;
67516;SDS011;68821;59.134;37.894;2024-03-02T00:56:46;5.75;;;2.42;;
67516;SDS011;68821;59.134;37.894;2024-03-02T00:59:13;6.00;;;2.17;;
67516;SDS011;68821;59.134;37.894;2024-03-02T01:01:40;4.97;;;2.05;;
67516;SDS011;68821;59.134;37.894;2024-03-02T01:04:07;6.78;;;2.10;;
67516;SDS011;68821;59.134;37.894;2024-03-02T01:06:34;5.55;;;2.60;;
67516;SDS011;68821;59.134;37.894;2024-03-02T01:09:00;9.32;;;2.40;;
67516;SDS011;68821;59.134;37.894;2024-03-02T01:11:28;5.35;;;2.20;;
67516;SDS011;68821;59.134;37.894;2024-03-02T01:23:39;4.68;;;2.00;;
67516;SDS011;68821;59.134;37.894;2024-03-02T01:26:05;5.40;;;2.08;;
67516;SDS011;68821;59.134;37.894;2024-03-02T01:28:32;4.95;;;2.05;;
67516;SDS011;68821;59.134;37.894;2024-03-02T01:30:58;5.72;;;2.22;;
67516;SDS011;68821;59.134;37.894;2024-03-02T01:33:24;4.70;;;2.05;;
67516;SDS011;68821;59.134;37.894;2024-03-02T01:35:50;5.18;;;2.25;;
67516;SDS011;68821;59.134;37.894;2024-03-02T01:38:16;5.45;;;2.40;;
67516;SDS011;68821;59.134;37.894;2024-03-02T01:40:42;6.00;;;2.20;;
67516;SDS011;68821;59.134;37.894;2024-03-02T01:43:12;5.22;;;1.90;;
67516;SDS011;68821;59.134;37.894;2024-03-02T01:45:37;4.68;;;2.08;;
67516;SDS011;68821;59.134;37.894;2024-03-02T01:48:06;5.60;;;2.00;;
67516;SDS011;68821;59.134;37.894;2024-03-02T01:50:33;5.90;;;2.63;;
67516;SDS011;68821;59.134;37.894;2024-03-02T01:53:00;5.32;;;2.80;;
67516;SDS011;68821;59.134;37.894;2024-03-02T01:55:28;5.20;;;1.98;;
67516;SDS011;68821;59.134;37.894;2024-03-02T01:57:55;6.25;;;2.28;;
67516;SDS011;68821;59.134;37.894;2024-03-02T02:00:22;5.07;;;2.47;;
67516;SDS011;68821;59.134;37.894;2024-03-02T02:02:50;4.15;;;1.80;;
67516;SDS011;68821;59.134;37.894;2024-03-02T02:05:16;5.93;;;1.95;;
67516;SDS011;68821;59.134;37.894;2024-03-02T02:07:42;4.85;;;2.08;;
67516;SDS011;68821;59.134;37.894;2024-03-02T02:10:09;5.35;;;2.20;;
67516;SDS011;68821;59.134;37.894;2024-03-02T02:12:36;5.28;;;2.50;;
67516;SDS011;68821;59.134;37.894;2024-03-02T02:15:03;5.63;;;2.05;;
67516;SDS011;68821;59.134;37.894;2024-03-02T02:17:47;5.35;;;2.03;;
67516;SDS011;68821;59.134;37.894;2024-03-02T02:20:14;4.95;;;1.85;;
67516;SDS011;68821;59.134;37.894;2024-03-02T02:22:40;7.15;;;2.38;;
67516;SDS011;68821;59.134;37.894;2024-03-02T02:25:06;4.90;;;2.20;;
67516;SDS011;68821;59.134;37.894;2024-03-02T02:27:32;5.53;;;1.92;;
67516;SDS011;68821;59.134;37.894;2024-03-02T02:29:58;4.80;;;1.88;;
67516;SDS011;68821;59.134;37.894;2024-03-02T02:32:25;5.50;;;2.28;;
67516;SDS011;68821;59.134;37.894;2024-03-02T02:34:54;5.70;;;2.22;;
67516;SDS011;68821;59.134;37.894;2024-03-02T02:37:20;4.15;;;1.92;;
67516;SDS011;68821;59.134;37.894;2024-03-02T02:39:46;6.40;;;2.38;;
67516;SDS011;68821;59.134;37.894;2024-03-02T02:42:12;6.13;;;2.10;;
67516;SDS011;68821;59.134;37.894;2024-03-02T02:44:38;6.53;;;2.22;;
67516;SDS011;68821;59.134;37.894;2024-03-02T02:47:04;4.95;;;2.33;;
67516;SDS011;68821;59.134;37.894;2024-03-02T02:49:30;5.05;;;2.13;;
67516;SDS011;68821;59.134;37.894;2024-03-02T02:51:56;6.53;;;2.58;;
67516;SDS011;68821;59.134;37.894;2024-03-02T02:54:22;6.57;;;2.22;;
67516;SDS011;68821;59.134;37.894;2024-03-02T02:56:48;6.50;;;2.30;;
67516;SDS011;68821;59.134;37.894;2024-03-02T02:59:15;4.93;;;2.22;;
67516;SDS011;68821;59.134;37.894;2024-03-02T03:01:41;5.32;;;2.22;;
67516;SDS011;68821;59.134;37.894;2024-03-02T03:04:07;4.60;;;2.08;;
67516;SDS011;68821;59.134;37.894;2024-03-02T03:06:33;6.05;;;2.10;;
67516;SDS011;68821;59.134;37.894;2024-03-02T03:08:59;6.22;;;2.00;;
67516;SDS011;68821;59.134;37.894;2024-03-02T03:11:25;5.22;;;2.20;;
67516;SDS011;68821;59.134;37.894;2024-03-02T03:13:52;7.15;;;2.63;;
67516;SDS011;68821;59.134;37.894;2024-03-02T03:16:20;6.65;;;2.22;;
67516;SDS011;68821;59.134;37.894;2024-03-02T03:18:46;7.80;;;2.95;;
67516;SDS011;68821;59.134;37.894;2024-03-02T03:21:12;6.38;;;2.10;;
67516;SDS011;68821;59.134;37.894;2024-03-02T03:23:38;5.07;;;2.30;;
67516;SDS011;68821;59.134;37.894;2024-03-02T03:26:04;8.88;;;2.88;;
67516;SDS011;68821;59.134;37.894;2024-03-02T03:28:30;6.30;;;2.58;;
67516;SDS011;68821;59.134;37.894;2024-03-02T03:30:56;7.43;;;2.63;;
67516;SDS011;68821;59.134;37.894;2024-03-02T03:33:22;6.80;;;3.15;;
67516;SDS011;68821;59.134;37.894;2024-03-02T03:35:48;5.47;;;2.70;;
67516;SDS011;68821;59.134;37.894;2024-03-02T03:38:14;5.00;;;2.65;;
67516;SDS011;68821;59.134;37.894;2024-03-02T03:40:40;6.65;;;2.58;;
67516;SDS011;68821;59.134;37.894;2024-03-02T03:43:06;4.88;;;1.80;;
67516;SDS011;68821;59.134;37.894;2024-03-02T03:45:32;5.50;;;2.20;;
67516;SDS011;68821;59.134;37.894;2024-03-02T03:47:58;7.35;;;2.20;;
67516;SDS011;68821;59.134;37.894;2024-03-02T03:50:24;4.57;;;2.00;;
67516;SDS011;68821;59.134;37.894;2024-03-02T03:52:50;4.22;;;1.80;;
67516;SDS011;68821;59.134;37.894;2024-03-02T03:55:16;4.25;;;1.88;;
67516;SDS011;68821;59.134;37.894;2024-03-02T03:57:42;7.30;;;2.50;;
67516;SDS011;68821;59.134;37.894;2024-03-02T04:00:08;5.45;;;2.10;;
67516;SDS011;68821;59.134;37.894;2024-03-02T04:02:36;6.18;;;2.22;;
67516;SDS011;68821;59.134;37.894;2024-03-02T04:05:02;5.75;;;2.22;;
67516;SDS011;68821;59.134;37.894;2024-03-02T04:07:30;5.45;;;2.22;;
67516;SDS011;68821;59.134;37.894;2024-03-02T04:09:56;4.97;;;2.53;;
67516;SDS011;68821;59.134;37.894;2024-03-02T04:12:22;6.38;;;2.20;;
67516;SDS011;68821;59.134;37.894;2024-03-02T04:14:48;5.00;;;2.17;;
67516;SDS011;68821;59.134;37.894;2024-03-02T04:17:15;3.92;;;1.67;;
67516;SDS011;68821;59.134;37.894;2024-03-02T04:19:41;6.60;;;2.13;;
67516;SDS011;68821;59.134;37.894;2024-03-02T04:22:07;6.07;;;2.10;;
67516;SDS011;68821;59.134;37.894;2024-03-02T04:24:33;5.60;;;2.13;;
67516;SDS011;68821;59.134;37.894;2024-03-02T04:26:59;4.88;;;2.03;;
67516;SDS011;68821;59.134;37.894;2024-03-02T04:29:25;6.90;;;2.13;;
67516;SDS011;68821;59.134;37.894;2024-03-02T04:31:51;5.25;;;2.17;;
67516;SDS011;68821;59.134;37.894;2024-03-02T04:34:17;4.40;;;2.28;;
67516;SDS011;68821;59.134;37.894;2024-03-02T04:36:43;5.40;;;2.10;;
67516;SDS011;68821;59.134;37.894;2024-03-02T04:39:09;4.50;;;1.70;;
67516;SDS011;68821;59.134;37.894;2024-03-02T04:41:35;6.30;;;2.30;;
67516;SDS011;68821;59.134;37.894;2024-03-02T04:44:01;4.85;;;2.22;;
67516;SDS011;68821;59.134;37.894;2024-03-02T04:46:27;4.32;;;1.63;;
67516;SDS011;68821;59.134;37.894;2024-03-02T04:48:54;6.15;;;2.30;;
67516;SDS011;68821;59.134;37.894;2024-03-02T04:51:22;4.93;;;2.28;;
67516;SDS011;68821;59.134;37.894;2024-03-02T04:53:48;4.47;;;1.85;;
67516;SDS011;68821;59.134;37.894;2024-03-02T04:56:14;5.32;;;2.40;;
67516;SDS011;68821;59.134;37.894;2024-03-02T04:58:59;4.97;;;2.17;;
67516;SDS011;68821;59.134;37.894;2024-03-02T05:01:25;4.55;;;1.90;;
67516;SDS011;68821;59.134;37.894;2024-03-02T05:03:51;4.82;;;1.80;;
67516;SDS011;68821;59.134;37.894;2024-03-02T05:06:17;4.75;;;1.73;;
67516;SDS011;68821;59.134;37.894;2024-03-02T05:08:43;4.60;;;2.10;;
67516;SDS011;68821;59.134;37.894;2024-03-02T05:14:14;4.80;;;1.90;;
67516;SDS011;68821;59.134;37.894;2024-03-02T05:16:40;5.10;;;1.90;;
67516;SDS011;68821;59.134;37.894;2024-03-02T05:19:07;5.35;;;2.17;;
67516;SDS011;68821;59.134;37.894;2024-03-02T05:21:34;4.05;;;1.80;;
67516;SDS011;68821;59.134;37.894;2024-03-02T05:24:00;4.45;;;1.88;;
67516;SDS011;68821;59.134;37.894;2024-03-02T05:26:26;5.43;;;2.20;;
67516;SDS011;68821;59.134;37.894;2024-03-02T05:28:52;6.95;;;3.00;;
67516;SDS011;68821;59.134;37.894;2024-03-02T05:31:18;3.97;;;1.80;;
67516;SDS011;68821;59.134;37.894;2024-03-02T05:33:44;3.85;;;1.70;;
67516;SDS011;68821;59.134;37.894;2024-03-02T05:36:11;4.15;;;1.88;;
67516;SDS011;68821;59.134;37.894;2024-03-02T05:38:37;4.68;;;1.60;;
67516;SDS011;68821;59.134;37.894;2024-03-02T05:41:03;4.20;;;1.98;;
67516;SDS011;68821;59.134;37.894;2024-03-02T05:43:29;4.47;;;2.10;;
67516;SDS011;68821;59.134;37.894;2024-03-02T05:45:55;5.38;;;2.10;;
67516;SDS011;68821;59.134;37.894;2024-03-02T05:48:21;5.55;;;2.38;;
67516;SDS011;68821;59.134;37.894;2024-03-02T05:50:47;7.47;;;3.00;;
67516;SDS011;68821;59.134;37.894;2024-03-02T05:53:13;4.22;;;2.20;;
67516;SDS011;68821;59.134;37.894;2024-03-02T05:55:39;5.22;;;2.10;;
67516;SDS011;68821;59.134;37.894;2024-03-02T05:58:05;5.70;;;2.47;;
67516;SDS011;68821;59.134;37.894;2024-03-02T06:00:31;6.45;;;2.05;;
67516;SDS011;68821;59.134;37.894;2024-03-02T06:02:57;6.40;;;2.00;;
67516;SDS011;68821;59.134;37.894;2024-03-02T06:05:23;5.30;;;2.17;;
67516;SDS011;68821;59.134;37.894;2024-03-02T06:07:50;5.53;;;2.30;;
67516;SDS011;68821;59.134;37.894;2024-03-02T06:10:16;5.32;;;2.20;;
67516;SDS011;68821;59.134;37.894;2024-03-02T06:12:43;5.28;;;2.45;;
67516;SDS011;68821;59.134;37.894;2024-03-02T06:15:09;6.20;;;2.65;;
67516;SDS011;68821;59.134;37.894;2024-03-02T06:17:36;4.97;;;2.20;;
67516;SDS011;68821;59.134;37.894;2024-03-02T06:20:02;5.15;;;2.22;;
67516;SDS011;68821;59.134;37.894;2024-03-02T06:22:29;4.45;;;2.20;;
67516;SDS011;68821;59.134;37.894;2024-03-02T06:24:55;5.25;;;2.28;;
67516;SDS011;68821;59.134;37.894;2024-03-02T06:27:21;4.05;;;2.08;;
67516;SDS011;68821;59.134;37.894;2024-03-02T06:29:47;5.47;;;2.28;;
67516;SDS011;68821;59.134;37.894;2024-03-02T06:32:14;5.90;;;2.30;;
67516;SDS011;68821;59.134;37.894;2024-03-02T06:34:40;5.07;;;2.20;;
67516;SDS011;68821;59.134;37.894;2024-03-02T06:37:06;5.20;;;2.08;;
67516;SDS011;68821;59.134;37.894;2024-03-02T06:39:32;7.05;;;2.38;;
67516;SDS011;68821;59.134;37.894;2024-03-02T06:41:59;5.07;;;2.28;;
67516;SDS011;68821;59.134;37.894;2024-03-02T06:44:26;6.72;;;2.70;;
67516;SDS011;68821;59.134;37.894;2024-03-02T06:46:52;4.20;;;1.63;;
67516;SDS011;68821;59.134;37.894;2024-03-02T06:49:17;5.13;;;2.33;;
67516;SDS011;68821;59.134;37.894;2024-03-02T06:51:44;5.78;;;2.67;;
67516;SDS011;68821;59.134;37.894;2024-03-02T06:54:10;7.07;;;2.88;;
67516;SDS011;68821;59.134;37.894;2024-03-02T06:56:36;6.70;;;2.92;;
67516;SDS011;68821;59.134;37.894;2024-03-02T06:59:04;6.22;;;2.50;;
67516;SDS011;68821;59.134;37.894;2024-03-02T07:01:30;7.47;;;3.60;;
67516;SDS011;68821;59.134;37.894;2024-03-02T07:03:56;5.97;;;3.13;;
67516;SDS011;68821;59.134;37.894;2024-03-02T07:06:22;6.40;;;2.65;;
67516;SDS011;68821;59.134;37.894;2024-03-02T07:08:48;5.82;;;2.47;;
67516;SDS011;68821;59.134;37.894;2024-03-02T07:11:14;4.82;;;2.00;;
67516;SDS011;68821;59.134;37.894;2024-03-02T07:13:40;4.90;;;2.20;;
67516;SDS011;68821;59.134;37.894;2024-03-02T07:16:06;5.82;;;2.05;;
67516;SDS011;68821;59.134;37.894;2024-03-02T07:18:52;5.10;;;1.95;;
67516;SDS011;68821;59.134;37.894;2024-03-02T07:21:18;4.80;;;2.05;;
67516;SDS011;68821;59.134;37.894;2024-03-02T07:23:44;4.53;;;1.90;;
67516;SDS011;68821;59.134;37.894;2024-03-02T07:26:10;4.35;;;1.83;;
67516;SDS011;68821;59.134;37.894;2024-03-02T07:28:36;4.07;;;1.88;;
67516;SDS011;68821;59.134;37.894;2024-03-02T07:31:02;3.70;;;1.50;;
67516;SDS011;68821;59.134;37.894;2024-03-02T07:35:56;4.15;;;1.83;;
67516;SDS011;68821;59.134;37.894;2024-03-02T07:38:25;4.20;;;1.83;;
67516;SDS011;68821;59.134;37.894;2024-03-02T07:40:51;4.88;;;2.40;;
67516;SDS011;68821;59.134;37.894;2024-03-02T07:43:17;4.32;;;2.10;;
67516;SDS011;68821;59.134;37.894;2024-03-02T07:45:44;4.65;;;2.08;;
67516;SDS011;68821;59.134;37.894;2024-03-02T07:48:11;5.57;;;2.05;;
67516;SDS011;68821;59.134;37.894;2024-03-02T07:50:37;4.43;;;1.77;;
67516;SDS011;68821;59.134;37.894;2024-03-02T07:53:04;4.28;;;1.80;;
67516;SDS011;68821;59.134;37.894;2024-03-02T07:55:31;5.00;;;1.90;;
67516;SDS011;68821;59.134;37.894;2024-03-02T07:57:57;4.95;;;2.10;;
67516;SDS011;68821;59.134;37.894;2024-03-02T08:00:23;5.20;;;2.03;;
67516;SDS011;68821;59.134;37.894;2024-03-02T08:02:51;4.72;;;1.85;;
67516;SDS011;68821;59.134;37.894;2024-03-02T08:05:17;4.68;;;2.33;;
67516;SDS011;68821;59.134;37.894;2024-03-02T08:07:45;5.32;;;2.17;;
67516;SDS011;68821;59.134;37.894;2024-03-02T08:10:11;4.57;;;1.85;;
67516;SDS011;68821;59.134;37.894;2024-03-02T08:12:38;6.30;;;2.42;;
67516;SDS011;68821;59.134;37.894;2024-03-02T08:15:04;4.20;;;2.10;;
67516;SDS011;68821;59.134;37.894;2024-03-02T08:17:30;6.85;;;2.35;;
67516;SDS011;68821;59.134;37.894;2024-03-02T08:19:57;5.25;;;2.50;;
67516;SDS011;68821;59.134;37.894;2024-03-02T08:22:23;5.35;;;2.25;;
67516;SDS011;68821;59.134;37.894;2024-03-02T08:24:52;6.70;;;2.30;;
67516;SDS011;68821;59.134;37.894;2024-03-02T08:27:19;5.85;;;2.40;;
67516;SDS011;68821;59.134;37.894;2024-03-02T08:29:45;6.55;;;2.28;;
67516;SDS011;68821;59.134;37.894;2024-03-02T08:32:11;4.80;;;1.83;;
67516;SDS011;68821;59.134;37.894;2024-03-02T08:34:37;5.75;;;2.67;;
67516;SDS011;68821;59.134;37.894;2024-03-02T08:37:03;6.05;;;2.33;;
67516;SDS011;68821;59.134;37.894;2024-03-02T08:39:29;5.03;;;2.35;;
67516;SDS011;68821;59.134;37.894;2024-03-02T08:41:55;6.60;;;2.70;;
67516;SDS011;68821;59.134;37.894;2024-03-02T08:44:21;5.15;;;2.40;;
67516;SDS011;68821;59.134;37.894;2024-03-02T08:46:47;6.72;;;2.20;;
67516;SDS011;68821;59.134;37.894;2024-03-02T08:49:13;4.90;;;2.33;;
67516;SDS011;68821;59.134;37.894;2024-03-02T08:51:40;6.15;;;2.67;;
67516;SDS011;68821;59.134;37.894;2024-03-02T08:54:06;5.78;;;2.33;;
67516;SDS011;68821;59.134;37.894;2024-03-02T08:56:32;4.72;;;2.40;;
67516;SDS011;68821;59.134;37.894;2024-03-02T08:58:58;5.43;;;2.13;;
67516;SDS011;68821;59.134;37.894;2024-03-02T09:01:24;4.97;;;2.40;;
67516;SDS011;68821;59.134;37.894;2024-03-02T09:03:54;5.30;;;2.20;;
67516;SDS011;68821;59.134;37.894;2024-03-02T09:06:20;6.47;;;2.58;;
67516;SDS011;68821;59.134;37.894;2024-03-02T09:08:46;6.00;;;2.00;;
67516;SDS011;68821;59.134;37.894;2024-03-02T09:11:15;5.03;;;2.30;;
67516;SDS011;68821;59.134;37.894;2024-03-02T09:13:41;4.50;;;1.80;;
67516;SDS011;68821;59.134;37.894;2024-03-02T09:16:07;4.07;;;1.70;;
67516;SDS011;68821;59.134;37.894;2024-03-02T09:18:36;5.63;;;2.00;;
67516;SDS011;68821;59.134;37.894;2024-03-02T09:21:03;3.60;;;1.48;;
67516;SDS011;68821;59.134;37.894;2024-03-02T09:23:30;4.20;;;2.10;;
67516;SDS011;68821;59.134;37.894;2024-03-02T09:25:56;6.78;;;2.65;;
67516;SDS011;68821;59.134;37.894;2024-03-02T09:28:22;4.38;;;1.85;;
67516;SDS011;68821;59.134;37.894;2024-03-02T09:30:48;4.88;;;1.63;;
67516;SDS011;68821;59.134;37.894;2024-03-02T09:33:14;3.88;;;1.52;;
67516;SDS011;68821;59.134;37.894;2024-03-02T09:35:40;3.72;;;1.48;;
67516;SDS011;68821;59.134;37.894;2024-03-02T09:38:06;4.30;;;1.70;;
67516;SDS011;68821;59.134;37.894;2024-03-02T09:40:32;3.50;;;1.40;;
67516;SDS011;68821;59.134;37.894;2024-03-02T09:42:58;5.68;;;2.50;;
67516;SDS011;68821;59.134;37.894;2024-03-02T09:45:24;4.93;;;2.10;;
67516;SDS011;68821;59.134;37.894;2024-03-02T09:47:52;4.38;;;1.92;;
67516;SDS011;68821;59.134;37.894;2024-03-02T09:50:18;4.65;;;1.83;;
67516;SDS011;68821;59.134;37.894;2024-03-02T09:52:46;3.97;;;1.80;;
67516;SDS011;68821;59.134;37.894;2024-03-02T09:55:14;3.88;;;1.48;;
67516;SDS011;68821;59.134;37.894;2024-03-02T09:57:42;4.53;;;1.60;;
67516;SDS011;68821;59.134;37.894;2024-03-02T10:00:08;4.10;;;1.75;;
67516;SDS011;68821;59.134;37.894;2024-03-02T10:02:43;4.10;;;1.92;;
67516;SDS011;68821;59.134;37.894;2024-03-02T10:05:09;4.75;;;2.28;;
67516;SDS011;68821;59.134;37.894;2024-03-02T10:07:35;5.25;;;2.00;;
67516;SDS011;68821;59.134;37.894;2024-03-02T10:10:14;4.75;;;2.00;;
67516;SDS011;68821;59.134;37.894;2024-03-02T10:15:07;4.30;;;2.03;;
67516;SDS011;68821;59.134;37.894;2024-03-02T10:17:35;4.22;;;1.73;;
67516;SDS011;68821;59.134;37.894;2024-03-02T10:22:50;4.43;;;2.20;;
67516;SDS011;68821;59.134;37.894;2024-03-02T10:25:29;5.50;;;2.28;;
67516;SDS011;68821;59.134;37.894;2024-03-02T10:27:59;4.90;;;2.55;;
67516;SDS011;68821;59.134;37.894;2024-03-02T10:30:28;6.65;;;2.30;;
67516;SDS011;68821;59.134;37.894;2024-03-02T10:32:55;5.32;;;2.20;;
67516;SDS011;68821;59.134;37.894;2024-03-02T10:35:21;4.40;;;1.92;;
67516;SDS011;68821;59.134;37.894;2024-03-02T10:37:54;3.72;;;1.95;;
67516;SDS011;68821;59.134;37.894;2024-03-02T10:40:21;5.35;;;2.22;;
67516;SDS011;68821;59.134;37.894;2024-03-02T10:42:49;5.03;;;2.33;;
67516;SDS011;68821;59.134;37.894;2024-03-02T10:45:17;5.03;;;1.77;;
67516;SDS011;68821;59.134;37.894;2024-03-02T10:47:46;4.45;;;1.90;;
67516;SDS011;68821;59.134;37.894;2024-03-02T10:50:13;4.75;;;1.90;;
67516;SDS011;68821;59.134;37.894;2024-03-02T10:52:39;5.03;;;2.13;;
67516;SDS011;68821;59.134;37.894;2024-03-02T10:55:11;6.20;;;2.15;;
67516;SDS011;68821;59.134;37.894;2024-03-02T10:57:40;5.32;;;2.40;;
67516;SDS011;68821;59.134;37.894;2024-03-02T11:00:11;5.30;;;2.55;;
67516;SDS011;68821;59.134;37.894;2024-03-02T11:02:41;4.85;;;2.30;;
67516;SDS011;68821;59.134;37.894;2024-03-02T11:05:13;5.55;;;2.30;;
67516;SDS011;68821;59.134;37.894;2024-03-02T11:07:46;5.55;;;2.50;;
67516;SDS011;68821;59.134;37.894;2024-03-02T11:10:13;4.60;;;2.63;;
67516;SDS011;68821;59.134;37.894;2024-03-02T11:12:48;5.80;;;2.63;;
67516;SDS011;68821;59.134;37.894;2024-03-02T11:15:21;7.65;;;3.22;;
67516;SDS011;68821;59.134;37.894;2024-03-02T11:17:52;4.53;;;2.10;;
67516;SDS011;68821;59.134;37.894;2024-03-02T11:22:46;6.25;;;2.90;;
67516;SDS011;68821;59.134;37.894;2024-03-02T11:25:25;7.13;;;3.33;;
67516;SDS011;68821;59.134;37.894;2024-03-02T11:33:09;7.57;;;3.30;;
67516;SDS011;68821;59.134;37.894;2024-03-02T11:35:43;8.18;;;3.67;;
67516;SDS011;68821;59.134;37.894;2024-03-02T11:38:13;6.75;;;3.78;;
67516;SDS011;68821;59.134;37.894;2024-03-02T11:40:40;7.57;;;4.47;;
67516;SDS011;68821;59.134;37.894;2024-03-02T11:43:07;8.30;;;4.30;;
67516;SDS011;68821;59.134;37.894;2024-03-02T11:45:36;7.95;;;4.13;;
67516;SDS011;68821;59.134;37.894;2024-03-02T11:48:08;9.20;;;4.10;;
67516;SDS011;68821;59.134;37.894;2024-03-02T11:50:42;11.68;;;4.60;;
67516;SDS011;68821;59.134;37.894;2024-03-02T11:53:14;10.43;;;4.68;;
67516;SDS011;68821;59.134;37.894;2024-03-02T11:55:40;8.82;;;3.92;;
67516;SDS011;68821;59.134;37.894;2024-03-02T11:58:09;9.48;;;4.85;;
67516;SDS011;68821;59.134;37.894;2024-03-02T12:00:35;11.50;;;5.45;;
67516;SDS011;68821;59.134;37.894;2024-03-02T12:03:02;11.13;;;5.15;;
67516;SDS011;68821;59.134;37.894;2024-03-02T12:05:30;11.25;;;4.75;;
67516;SDS011;68821;59.134;37.894;2024-03-02T12:08:00;13.07;;;5.10;;
67516;SDS011;68821;59.134;37.894;2024-03-02T12:10:28;11.65;;;5.32;;
67516;SDS011;68821;59.134;37.894;2024-03-02T12:15:25;8.57;;;4.35;;
67516;SDS011;68821;59.134;37.894;2024-03-02T12:17:55;9.00;;;4.07;;
67516;SDS011;68821;59.134;37.894;2024-03-02T12:20:23;11.23;;;5.05;;
67516;SDS011;68821;59.134;37.894;2024-03-02T12:22:50;10.32;;;5.43;;
67516;SDS011;68821;59.134;37.894;2024-03-02T12:25:18;7.72;;;3.90;;
67516;SDS011;68821;59.134;37.894;2024-03-02T12:27:45;8.50;;;4.13;;
67516;SDS011;68821;59.134;37.894;2024-03-02T12:30:12;8.88;;;4.30;;
67516;SDS011;68821;59.134;37.894;2024-03-02T12:32:40;9.60;;;4.55;;
67516;SDS011;68821;59.134;37.894;2024-03-02T12:35:06;7.13;;;3.65;;
67516;SDS011;68821;59.134;37.894;2024-03-02T12:37:32;8.73;;;4.35;;
67516;SDS011;68821;59.134;37.894;2024-03-02T12:39:59;9.30;;;4.30;;
67516;SDS011;68821;59.134;37.894;2024-03-02T12:42:25;9.65;;;4.68;;
67516;SDS011;68821;59.134;37.894;2024-03-02T12:44:54;10.02;;;4.75;;
67516;SDS011;68821;59.134;37.894;2024-03-02T12:47:20;10.38;;;4.45;;
67516;SDS011;68821;59.134;37.894;2024-03-02T12:49:46;10.68;;;4.97;;
67516;SDS011;68821;59.134;37.894;2024-03-02T12:52:13;7.40;;;3.90;;
67516;SDS011;68821;59.134;37.894;2024-03-02T12:54:39;9.32;;;4.35;;
67516;SDS011;68821;59.134;37.894;2024-03-02T12:57:05;8.50;;;4.00;;
67516;SDS011;68821;59.134;37.894;2024-03-02T12:59:32;6.60;;;3.10;;
67516;SDS011;68821;59.134;37.894;2024-03-02T13:01:58;6.55;;;3.47;;
67516;SDS011;68821;59.134;37.894;2024-03-02T13:04:24;8.63;;;4.13;;
67516;SDS011;68821;59.134;37.894;2024-03-02T13:06:52;8.10;;;3.95;;
67516;SDS011;68821;59.134;37.894;2024-03-02T13:09:18;8.63;;;3.90;;
67516;SDS011;68821;59.134;37.894;2024-03-02T13:11:44;8.70;;;4.43;;
67516;SDS011;68821;59.134;37.894;2024-03-02T13:14:11;9.90;;;4.05;;
67516;SDS011;68821;59.134;37.894;2024-03-02T13:16:40;12.15;;;5.32;;
67516;SDS011;68821;59.134;37.894;2024-03-02T13:19:17;12.80;;;4.53;;
67516;SDS011;68821;59.134;37.894;2024-03-02T13:21:44;9.80;;;4.45;;
67516;SDS011;68821;59.134;37.894;2024-03-02T13:24:10;7.72;;;3.80;;
67516;SDS011;68821;59.134;37.894;2024-03-02T13:26:36;9.40;;;4.38;;
67516;SDS011;68821;59.134;37.894;2024-03-02T13:29:02;10.10;;;3.95;;
67516;SDS011;68821;59.134;37.894;2024-03-02T13:31:28;12.88;;;4.93;;
67516;SDS011;68821;59.134;37.894;2024-03-02T13:33:54;10.05;;;4.38;;
67516;SDS011;68821;59.134;37.894;2024-03-02T13:36:20;8.35;;;4.15;;
67516;SDS011;68821;59.134;37.894;2024-03-02T13:38:46;12.00;;;5.45;;
67516;SDS011;68821;59.134;37.894;2024-03-02T13:41:12;10.32;;;4.05;;
67516;SDS011;68821;59.134;37.894;2024-03-02T13:43:38;8.60;;;3.67;;
67516;SDS011;68821;59.134;37.894;2024-03-02T13:46:05;10.13;;;4.15;;
67516;SDS011;68821;59.134;37.894;2024-03-02T13:48:31;9.25;;;4.05;;
67516;SDS011;68821;59.134;37.894;2024-03-02T13:50:57;8.73;;;4.05;;
67516;SDS011;68821;59.134;37.894;2024-03-02T13:53:23;7.80;;;3.63;;
67516;SDS011;68821;59.134;37.894;2024-03-02T13:55:49;7.07;;;3.45;;
67516;SDS011;68821;59.134;37.894;2024-03-02T13:58:15;10.18;;;4.20;;
67516;SDS011;68821;59.134;37.894;2024-03-02T14:00:41;10.80;;;4.53;;
67516;SDS011;68821;59.134;37.894;2024-03-02T14:03:08;10.65;;;4.68;;
67516;SDS011;68821;59.134;37.894;2024-03-02T14:05:34;8.70;;;3.75;;
67516;SDS011;68821;59.134;37.894;2024-03-02T14:08:00;10.68;;;4.63;;
67516;SDS011;68821;59.134;37.894;2024-03-02T14:10:26;11.40;;;4.93;;
67516;SDS011;68821;59.134;37.894;2024-03-02T14:12:53;11.80;;;5.07;;
67516;SDS011;68821;59.134;37.894;2024-03-02T14:15:21;16.60;;;4.38;;
67516;SDS011;68821;59.134;37.894;2024-03-02T14:17:47;8.90;;;4.30;;
67516;SDS011;68821;59.134;37.894;2024-03-02T14:20:14;7.93;;;3.85;;
67516;SDS011;68821;59.134;37.894;2024-03-02T14:22:40;7.72;;;3.70;;
67516;SDS011;68821;59.134;37.894;2024-03-02T14:25:06;7.95;;;3.50;;
67516;SDS011;68821;59.134;37.894;2024-03-02T14:27:32;9.13;;;4.20;;
67516;SDS011;68821;59.134;37.894;2024-03-02T14:29:58;11.10;;;4.25;;
67516;SDS011;68821;59.134;37.894;2024-03-02T14:32:24;10.02;;;3.92;;
67516;SDS011;68821;59.134;37.894;2024-03-02T14:34:50;10.23;;;4.15;;
67516;SDS011;68821;59.134;37.894;2024-03-02T14:37:16;7.05;;;2.83;;
67516;SDS011;68821;59.134;37.894;2024-03-02T14:39:42;7.43;;;2.97;;
67516;SDS011;68821;59.134;37.894;2024-03-02T14:42:08;8.55;;;3.60;;
67516;SDS011;68821;59.134;37.894;2024-03-02T14:44:34;8.15;;;4.07;;
67516;SDS011;68821;59.134;37.894;2024-03-02T14:47:02;7.72;;;3.60;;
67516;SDS011;68821;59.134;37.894;2024-03-02T14:49:30;7.38;;;3.60;;
67516;SDS011;68821;59.134;37.894;2024-03-02T14:51:56;6.50;;;2.88;;
67516;SDS011;68821;59.134;37.894;2024-03-02T14:54:22;7.70;;;3.53;;
67516;SDS011;68821;59.134;37.894;2024-03-02T14:56:48;7.72;;;3.83;;
67516;SDS011;68821;59.134;37.894;2024-03-02T14:59:14;6.68;;;2.75;;
67516;SDS011;68821;59.134;37.894;2024-03-02T15:01:40;6.80;;;3.15;;
67516;SDS011;68821;59.134;37.894;2024-03-02T15:04:06;8.27;;;3.70;;